sensor_id;sensor_type;location;lat;lon;timestamp;pressure;altitude;pressure_sealevel;temperature;humidity
2549;BME280;1284;53.520;10.248;2023-02-20T00:00:29;101325.56;;;7.94;86.51
2549;BME280;1284;53.520;10.248;2023-02-20T00:02:54;101311.78;;;8.12;85.28
2549;BME280;1284;53.520;10.248;2023-02-20T00:05:23;101317.00;;;8.09;85.60
2549;BME280;1284;53.520;10.248;2023-02-20T00:07:52;101308.50;;;7.98;86.63
2549;BME280;1284;53.520;10.248;2023-02-20T00:10:18;101301.19;;;8.16;85.55
2549;BME280;1284;53.520;10.248;2023-02-20T00:12:44;101282.56;;;8.11;85.90
2549;BME280;1284;53.520;10.248;2023-02-20T00:15:13;101275.53;;;7.98;86.71
2549;BME280;1284;53.520;10.248;2023-02-20T00:17:41;101283.59;;;7.98;86.96
2549;BME280;1284;53.520;10.248;2023-02-20T00:20:07;101280.97;;;8.27;85.30
2549;BME280;1284;53.520;10.248;2023-02-20T00:22:33;101275.94;;;8.17;85.89
2549;BME280;1284;53.520;10.248;2023-02-20T00:24:58;101268.50;;;7.85;87.27
2549;BME280;1284;53.520;10.248;2023-02-20T00:27:24;101253.97;;;7.86;88.05
2549;BME280;1284;53.520;10.248;2023-02-20T00:29:49;101246.19;;;8.01;87.84
2549;BME280;1284;53.520;10.248;2023-02-20T00:32:15;101243.72;;;7.88;88.05
2549;BME280;1284;53.520;10.248;2023-02-20T00:34:41;101239.03;;;8.14;86.99
2549;BME280;1284;53.520;10.248;2023-02-20T00:37:06;101222.75;;;8.19;86.99
2549;BME280;1284;53.520;10.248;2023-02-20T00:39:33;101216.44;;;8.15;86.73
2549;BME280;1284;53.520;10.248;2023-02-20T00:41:58;101198.34;;;8.12;87.16
2549;BME280;1284;53.520;10.248;2023-02-20T00:44:24;101191.00;;;8.21;87.06
2549;BME280;1284;53.520;10.248;2023-02-20T00:46:52;101198.72;;;8.31;86.44
2549;BME280;1284;53.520;10.248;2023-02-20T00:49:17;101188.50;;;7.95;87.59
2549;BME280;1284;53.520;10.248;2023-02-20T00:51:46;101188.63;;;7.99;87.98
2549;BME280;1284;53.520;10.248;2023-02-20T00:54:12;101185.13;;;8.07;87.94
2549;BME280;1284;53.520;10.248;2023-02-20T00:56:38;101164.84;;;8.18;87.14
2549;BME280;1284;53.520;10.248;2023-02-20T00:59:03;101165.13;;;8.25;86.92
2549;BME280;1284;53.520;10.248;2023-02-20T01:01:29;101159.44;;;8.27;87.14
2549;BME280;1284;53.520;10.248;2023-02-20T01:03:55;101159.28;;;8.23;87.56
2549;BME280;1284;53.520;10.248;2023-02-20T01:06:21;101156.66;;;8.44;86.32
2549;BME280;1284;53.520;10.248;2023-02-20T01:08:46;101154.69;;;8.32;86.84
2549;BME280;1284;53.520;10.248;2023-02-20T01:11:12;101154.47;;;8.37;86.79
2549;BME280;1284;53.520;10.248;2023-02-20T01:13:37;101162.53;;;8.37;86.53
2549;BME280;1284;53.520;10.248;2023-02-20T01:16:05;101164.84;;;8.47;86.07
2549;BME280;1284;53.520;10.248;2023-02-20T01:18:31;101155.75;;;8.40;86.61
2549;BME280;1284;53.520;10.248;2023-02-20T01:20:57;101156.00;;;8.47;85.73
2549;BME280;1284;53.520;10.248;2023-02-20T01:23:22;101157.72;;;8.22;87.43
2549;BME280;1284;53.520;10.248;2023-02-20T01:25:48;101155.88;;;8.43;86.67
2549;BME280;1284;53.520;10.248;2023-02-20T01:28:13;101145.13;;;8.43;86.12
2549;BME280;1284;53.520;10.248;2023-02-20T01:30:40;101142.97;;;8.37;86.47
2549;BME280;1284;53.520;10.248;2023-02-20T01:33:08;101145.13;;;8.43;86.43
2549;BME280;1284;53.520;10.248;2023-02-20T01:35:34;101142.13;;;8.45;86.51
2549;BME280;1284;53.520;10.248;2023-02-20T01:38:00;101142.56;;;8.47;86.66
2549;BME280;1284;53.520;10.248;2023-02-20T01:40:31;101133.41;;;8.48;86.60
2549;BME280;1284;53.520;10.248;2023-02-20T01:42:59;101125.09;;;8.41;87.30
2549;BME280;1284;53.520;10.248;2023-02-20T01:47:53;101116.97;;;8.49;87.17
2549;BME280;1284;53.520;10.248;2023-02-20T01:50:23;101110.00;;;8.36;87.21
2549;BME280;1284;53.520;10.248;2023-02-20T01:55:23;101103.16;;;8.59;86.60
2549;BME280;1284;53.520;10.248;2023-02-20T01:57:57;101100.44;;;8.47;87.16
2549;BME280;1284;53.520;10.248;2023-02-20T02:00:25;101080.16;;;8.50;87.17
2549;BME280;1284;53.520;10.248;2023-02-20T02:03:04;101069.91;;;8.52;87.09
2549;BME280;1284;53.520;10.248;2023-02-20T02:05:32;101068.22;;;8.47;87.38
2549;BME280;1284;53.520;10.248;2023-02-20T02:08:00;101053.16;;;8.55;87.16
2549;BME280;1284;53.520;10.248;2023-02-20T02:10:31;101047.84;;;8.46;87.30
2549;BME280;1284;53.520;10.248;2023-02-20T02:12:59;101044.13;;;8.59;86.46
2549;BME280;1284;53.520;10.248;2023-02-20T02:15:25;101044.97;;;8.51;87.01
2549;BME280;1284;53.520;10.248;2023-02-20T02:34:17;101015.28;;;8.68;86.74
2549;BME280;1284;53.520;10.248;2023-02-20T02:39:45;101004.16;;;8.58;87.74
2549;BME280;1284;53.520;10.248;2023-02-20T02:45:14;101013.16;;;8.74;87.14
2549;BME280;1284;53.520;10.248;2023-02-20T02:47:47;101020.91;;;8.43;89.17
2549;BME280;1284;53.520;10.248;2023-02-20T02:50:19;101010.44;;;8.62;88.62
2549;BME280;1284;53.520;10.248;2023-02-20T02:52:49;101021.81;;;8.47;88.86
2549;BME280;1284;53.520;10.248;2023-02-20T02:55:19;101000.72;;;8.57;88.90
2549;BME280;1284;53.520;10.248;2023-02-20T02:57:46;101000.44;;;8.50;89.68
2549;BME280;1284;53.520;10.248;2023-02-20T03:00:21;100988.06;;;8.46;90.40
2549;BME280;1284;53.520;10.248;2023-02-20T03:05:28;100968.72;;;8.64;89.92
2549;BME280;1284;53.520;10.248;2023-02-20T03:11:12;100958.00;;;8.76;89.33
2549;BME280;1284;53.520;10.248;2023-02-20T03:13:52;100959.78;;;8.72;90.21
2549;BME280;1284;53.520;10.248;2023-02-20T03:19:20;100956.88;;;8.77;90.29
2549;BME280;1284;53.520;10.248;2023-02-20T03:21:50;100959.44;;;8.74;90.31
2549;BME280;1284;53.520;10.248;2023-02-20T03:24:19;100969.75;;;8.72;90.68
2549;BME280;1284;53.520;10.248;2023-02-20T03:26:47;100960.34;;;8.66;91.31
2549;BME280;1284;53.520;10.248;2023-02-20T03:29:19;100960.34;;;8.66;91.35
2549;BME280;1284;53.520;10.248;2023-02-20T03:34:41;100950.22;;;8.39;93.30
2549;BME280;1284;53.520;10.248;2023-02-20T03:37:27;100944.53;;;8.52;92.69
2549;BME280;1284;53.520;10.248;2023-02-20T03:40:14;100948.59;;;8.58;93.07
2549;BME280;1284;53.520;10.248;2023-02-20T03:43:04;100945.91;;;8.70;92.90
2549;BME280;1284;53.520;10.248;2023-02-20T03:45:51;100944.78;;;8.71;92.55
2549;BME280;1284;53.520;10.248;2023-02-20T03:48:27;100935.41;;;8.77;91.73
2549;BME280;1284;53.520;10.248;2023-02-20T03:50:56;100933.63;;;8.93;91.02
2549;BME280;1284;53.520;10.248;2023-02-20T03:53:24;100927.78;;;8.55;92.82
2549;BME280;1284;53.520;10.248;2023-02-20T03:58:18;100928.25;;;8.57;92.69
2549;BME280;1284;53.520;10.248;2023-02-20T04:00:49;100929.81;;;8.82;92.05
2549;BME280;1284;53.520;10.248;2023-02-20T04:03:20;100947.91;;;8.73;91.52
2549;BME280;1284;53.520;10.248;2023-02-20T04:05:51;100939.78;;;8.82;91.85
2549;BME280;1284;53.520;10.248;2023-02-20T04:08:36;100946.59;;;8.79;91.55
2549;BME280;1284;53.520;10.248;2023-02-20T04:11:13;100933.72;;;8.85;91.43
2549;BME280;1284;53.520;10.248;2023-02-20T04:13:40;100937.88;;;8.82;91.47
2549;BME280;1284;53.520;10.248;2023-02-20T04:16:07;100920.28;;;8.85;91.05
2549;BME280;1284;53.520;10.248;2023-02-20T04:18:34;100925.34;;;8.74;92.03
2549;BME280;1284;53.520;10.248;2023-02-20T04:21:05;100904.06;;;8.93;90.69
2549;BME280;1284;53.520;10.248;2023-02-20T04:23:39;100904.28;;;8.88;90.66
2549;BME280;1284;53.520;10.248;2023-02-20T04:26:16;100896.91;;;8.73;91.40
2549;BME280;1284;53.520;10.248;2023-02-20T04:28:44;100893.22;;;8.78;91.63
2549;BME280;1284;53.520;10.248;2023-02-20T04:31:14;100886.53;;;8.84;90.88
2549;BME280;1284;53.520;10.248;2023-02-20T04:33:41;100879.25;;;8.84;90.76
2549;BME280;1284;53.520;10.248;2023-02-20T04:36:12;100879.69;;;8.86;90.40
2549;BME280;1284;53.520;10.248;2023-02-20T04:38:38;100875.78;;;8.84;90.84
2549;BME280;1284;53.520;10.248;2023-02-20T04:41:06;100871.06;;;8.81;90.67
2549;BME280;1284;53.520;10.248;2023-02-20T04:43:31;100868.06;;;8.82;90.63
2549;BME280;1284;53.520;10.248;2023-02-20T04:45:57;100877.44;;;8.88;90.13
2549;BME280;1284;53.520;10.248;2023-02-20T04:48:23;100863.34;;;8.79;90.40
2549;BME280;1284;53.520;10.248;2023-02-20T04:50:48;100849.59;;;8.81;90.48
2549;BME280;1284;53.520;10.248;2023-02-20T04:53:15;100859.44;;;8.77;90.31
2549;BME280;1284;53.520;10.248;2023-02-20T04:55:41;100846.25;;;8.72;90.97
2549;BME280;1284;53.520;10.248;2023-02-20T04:58:11;100836.16;;;8.81;90.64
2549;BME280;1284;53.520;10.248;2023-02-20T05:00:49;100835.63;;;8.75;90.88
2549;BME280;1284;53.520;10.248;2023-02-20T05:03:14;100831.59;;;8.69;91.26
2549;BME280;1284;53.520;10.248;2023-02-20T05:05:40;100826.56;;;8.80;90.83
2549;BME280;1284;53.520;10.248;2023-02-20T05:08:06;100834.28;;;8.69;91.70
2549;BME280;1284;53.520;10.248;2023-02-20T05:10:34;100852.63;;;8.43;92.63
2549;BME280;1284;53.520;10.248;2023-02-20T05:13:00;100858.47;;;8.57;92.37
2549;BME280;1284;53.520;10.248;2023-02-20T05:15:27;100860.47;;;8.72;91.94
2549;BME280;1284;53.520;10.248;2023-02-20T05:17:53;100859.22;;;8.70;91.54
2549;BME280;1284;53.520;10.248;2023-02-20T05:20:19;100841.31;;;8.74;91.41
2549;BME280;1284;53.520;10.248;2023-02-20T05:22:46;100837.41;;;8.71;91.91
2549;BME280;1284;53.520;10.248;2023-02-20T05:25:12;100827.34;;;8.80;91.19
2549;BME280;1284;53.520;10.248;2023-02-20T05:27:38;100826.56;;;8.80;91.56
2549;BME280;1284;53.520;10.248;2023-02-20T05:30:05;100816.56;;;8.92;90.43
2549;BME280;1284;53.520;10.248;2023-02-20T05:32:31;100824.13;;;8.63;91.66
2549;BME280;1284;53.520;10.248;2023-02-20T05:34:57;100800.41;;;8.65;92.33
2549;BME280;1284;53.520;10.248;2023-02-20T05:37:24;100805.97;;;8.72;91.89
2549;BME280;1284;53.520;10.248;2023-02-20T05:39:50;100795.13;;;8.80;91.14
2549;BME280;1284;53.520;10.248;2023-02-20T05:42:16;100800.50;;;8.68;91.82
2549;BME280;1284;53.520;10.248;2023-02-20T05:44:42;100782.72;;;8.76;91.93
2549;BME280;1284;53.520;10.248;2023-02-20T05:47:08;100771.19;;;8.75;91.78
2549;BME280;1284;53.520;10.248;2023-02-20T05:49:34;100779.34;;;8.79;91.63
2549;BME280;1284;53.520;10.248;2023-02-20T05:52:01;100778.19;;;8.92;91.54
2549;BME280;1284;53.520;10.248;2023-02-20T05:54:26;100765.97;;;8.94;91.56
2549;BME280;1284;53.520;10.248;2023-02-20T05:56:52;100755.44;;;9.01;91.03
2549;BME280;1284;53.520;10.248;2023-02-20T05:59:20;100749.72;;;9.03;90.72
2549;BME280;1284;53.520;10.248;2023-02-20T06:01:46;100755.63;;;9.08;90.71
2549;BME280;1284;53.520;10.248;2023-02-20T06:04:12;100762.63;;;8.97;91.62
2549;BME280;1284;53.520;10.248;2023-02-20T06:06:39;100754.69;;;8.89;91.56
2549;BME280;1284;53.520;10.248;2023-02-20T06:09:07;100752.75;;;9.01;91.31
2549;BME280;1284;53.520;10.248;2023-02-20T06:11:33;100743.91;;;9.01;90.70
2549;BME280;1284;53.520;10.248;2023-02-20T06:13:59;100732.72;;;8.99;91.46
2549;BME280;1284;53.520;10.248;2023-02-20T06:16:26;100720.72;;;9.08;90.36
2549;BME280;1284;53.520;10.248;2023-02-20T06:18:53;100727.28;;;8.95;91.58
2549;BME280;1284;53.520;10.248;2023-02-20T06:21:19;100717.16;;;9.04;91.10
2549;BME280;1284;53.520;10.248;2023-02-20T06:23:48;100709.34;;;8.99;91.85
2549;BME280;1284;53.520;10.248;2023-02-20T06:26:15;100705.09;;;8.98;91.56
2549;BME280;1284;53.520;10.248;2023-02-20T06:28:41;100711.44;;;9.06;91.15
2549;BME280;1284;53.520;10.248;2023-02-20T06:31:07;100699.53;;;8.91;91.74
2549;BME280;1284;53.520;10.248;2023-02-20T06:33:33;100699.41;;;9.00;91.84
2549;BME280;1284;53.520;10.248;2023-02-20T06:35:59;100707.25;;;8.93;91.95
2549;BME280;1284;53.520;10.248;2023-02-20T06:38:25;100708.91;;;8.97;92.31
2549;BME280;1284;53.520;10.248;2023-02-20T06:40:51;100707.16;;;8.89;92.30
2549;BME280;1284;53.520;10.248;2023-02-20T06:43:17;100730.84;;;8.99;92.01
2549;BME280;1284;53.520;10.248;2023-02-20T06:45:43;100724.34;;;9.00;91.74
2549;BME280;1284;53.520;10.248;2023-02-20T06:48:09;100722.78;;;8.99;92.11
2549;BME280;1284;53.520;10.248;2023-02-20T06:50:34;100723.06;;;9.10;91.52
2549;BME280;1284;53.520;10.248;2023-02-20T06:53:00;100725.91;;;9.01;92.43
2549;BME280;1284;53.520;10.248;2023-02-20T06:55:25;100729.13;;;9.07;92.02
2549;BME280;1284;53.520;10.248;2023-02-20T06:57:51;100729.06;;;9.19;91.57
2549;BME280;1284;53.520;10.248;2023-02-20T07:00:17;100727.06;;;9.16;91.45
2549;BME280;1284;53.520;10.248;2023-02-20T07:02:43;100723.06;;;9.10;92.38
2549;BME280;1284;53.520;10.248;2023-02-20T07:05:09;100714.94;;;8.94;93.62
2549;BME280;1284;53.520;10.248;2023-02-20T07:07:35;100701.69;;;9.14;92.29
2549;BME280;1284;53.520;10.248;2023-02-20T07:10:00;100709.75;;;9.14;92.55
2549;BME280;1284;53.520;10.248;2023-02-20T07:12:30;100716.41;;;9.20;92.45
2549;BME280;1284;53.520;10.248;2023-02-20T07:14:55;100728.38;;;8.67;95.08
2549;BME280;1284;53.520;10.248;2023-02-20T07:17:21;100719.28;;;8.71;95.61
2549;BME280;1284;53.520;10.248;2023-02-20T07:19:46;100729.59;;;8.97;94.63
2549;BME280;1284;53.520;10.248;2023-02-20T07:22:12;100738.69;;;9.20;93.30
2549;BME280;1284;53.520;10.248;2023-02-20T07:24:37;100722.88;;;9.31;93.15
2549;BME280;1284;53.520;10.248;2023-02-20T07:27:06;100740.34;;;8.97;94.88
2549;BME280;1284;53.520;10.248;2023-02-20T07:29:31;100739.06;;;9.34;93.31
2549;BME280;1284;53.520;10.248;2023-02-20T07:31:57;100723.22;;;9.45;93.18
2549;BME280;1284;53.520;10.248;2023-02-20T07:34:22;100720.53;;;9.45;92.37
2549;BME280;1284;53.520;10.248;2023-02-20T07:36:48;100714.22;;;9.53;92.66
2549;BME280;1284;53.520;10.248;2023-02-20T07:39:13;100727.97;;;9.36;93.15
2549;BME280;1284;53.520;10.248;2023-02-20T07:41:39;100726.41;;;9.19;94.71
2549;BME280;1284;53.520;10.248;2023-02-20T07:44:16;100717.22;;;9.36;94.05
2549;BME280;1284;53.520;10.248;2023-02-20T07:46:42;100722.81;;;9.15;95.50
2549;BME280;1284;53.520;10.248;2023-02-20T07:51:53;100716.97;;;9.41;94.55
2549;BME280;1284;53.520;10.248;2023-02-20T07:54:19;100704.13;;;9.34;94.45
2549;BME280;1284;53.520;10.248;2023-02-20T07:56:44;100714.38;;;9.29;95.19
2549;BME280;1284;53.520;10.248;2023-02-20T07:59:10;100700.59;;;9.46;94.72
2549;BME280;1284;53.520;10.248;2023-02-20T08:01:35;100699.81;;;9.45;95.18
2549;BME280;1284;53.520;10.248;2023-02-20T08:04:01;100691.28;;;9.28;96.38
2549;BME280;1284;53.520;10.248;2023-02-20T08:06:26;100697.81;;;9.27;96.33
2549;BME280;1284;53.520;10.248;2023-02-20T08:08:53;100701.38;;;9.46;95.42
2549;BME280;1284;53.520;10.248;2023-02-20T08:11:21;100690.72;;;9.65;94.84
2549;BME280;1284;53.520;10.248;2023-02-20T08:13:46;100694.88;;;9.63;94.69
2549;BME280;1284;53.520;10.248;2023-02-20T08:16:12;100681.34;;;9.59;95.27
2549;BME280;1284;53.520;10.248;2023-02-20T08:18:37;100676.84;;;9.79;93.84
2549;BME280;1284;53.520;10.248;2023-02-20T08:21:03;100685.88;;;9.71;94.44
2549;BME280;1284;53.520;10.248;2023-02-20T08:23:28;100698.72;;;9.77;94.37
2549;BME280;1284;53.520;10.248;2023-02-20T08:25:54;100692.97;;;9.79;94.41
2549;BME280;1284;53.520;10.248;2023-02-20T08:28:20;100692.53;;;9.46;96.45
2549;BME280;1284;53.520;10.248;2023-02-20T08:30:46;100685.88;;;9.55;96.54
2549;BME280;1284;53.520;10.248;2023-02-20T08:33:12;100681.72;;;9.73;95.37
2549;BME280;1284;53.520;10.248;2023-02-20T08:35:38;100663.41;;;9.79;94.98
2549;BME280;1284;53.520;10.248;2023-02-20T08:38:05;100660.59;;;9.91;94.58
2549;BME280;1284;53.520;10.248;2023-02-20T08:40:31;100659.84;;;9.75;95.39
2549;BME280;1284;53.520;10.248;2023-02-20T08:42:57;100653.97;;;9.54;97.05
2549;BME280;1284;53.520;10.248;2023-02-20T08:45:23;100656.22;;;9.52;97.32
2549;BME280;1284;53.520;10.248;2023-02-20T08:50:35;100641.97;;;9.51;97.68
2549;BME280;1284;53.520;10.248;2023-02-20T08:58:32;100654.28;;;9.68;97.58
2549;BME280;1284;53.520;10.248;2023-02-20T09:00:58;100647.94;;;9.60;97.45
2549;BME280;1284;53.520;10.248;2023-02-20T09:03:23;100639.53;;;9.77;97.63
2549;BME280;1284;53.520;10.248;2023-02-20T09:05:50;100635.88;;;9.70;97.71
2549;BME280;1284;53.520;10.248;2023-02-20T09:08:15;100629.00;;;9.88;97.12
2549;BME280;1284;53.520;10.248;2023-02-20T09:10:41;100616.84;;;9.94;97.01
2549;BME280;1284;53.520;10.248;2023-02-20T09:13:06;100616.88;;;9.78;98.25
2549;BME280;1284;53.520;10.248;2023-02-20T09:15:32;100603.72;;;9.73;99.80
2549;BME280;1284;53.520;10.248;2023-02-20T09:20:29;100594.44;;;9.71;100.00
2549;BME280;1284;53.520;10.248;2023-02-20T09:22:57;100584.38;;;9.68;100.00
2549;BME280;1284;53.520;10.248;2023-02-20T09:25:22;100592.31;;;9.80;100.00
2549;BME280;1284;53.520;10.248;2023-02-20T09:27:48;100598.00;;;9.75;100.00
2549;BME280;1284;53.520;10.248;2023-02-20T09:30:15;100586.69;;;9.85;100.00
2549;BME280;1284;53.520;10.248;2023-02-20T09:32:44;100590.34;;;9.77;100.00
2549;BME280;1284;53.520;10.248;2023-02-20T09:35:16;100587.31;;;9.78;100.00
2549;BME280;1284;53.520;10.248;2023-02-20T09:37:42;100591.66;;;9.83;100.00
2549;BME280;1284;53.520;10.248;2023-02-20T09:40:10;100600.25;;;9.73;100.00
2549;BME280;1284;53.520;10.248;2023-02-20T09:45:34;100592.94;;;9.89;100.00
2549;BME280;1284;53.520;10.248;2023-02-20T09:50:38;100576.31;;;10.02;100.00
2549;BME280;1284;53.520;10.248;2023-02-20T09:55:44;100576.63;;;9.82;100.00
2549;BME280;1284;53.520;10.248;2023-02-20T09:58:42;100582.22;;;9.73;100.00
2549;BME280;1284;53.520;10.248;2023-02-20T10:01:12;100557.69;;;9.94;100.00
2549;BME280;1284;53.520;10.248;2023-02-20T10:03:52;100563.50;;;9.96;100.00
2549;BME280;1284;53.520;10.248;2023-02-20T10:06:21;100569.81;;;9.69;100.00
2549;BME280;1284;53.520;10.248;2023-02-20T10:08:48;100559.50;;;9.71;100.00
2549;BME280;1284;53.520;10.248;2023-02-20T10:20:08;100559.69;;;9.81;100.00
2549;BME280;1284;53.520;10.248;2023-02-20T10:22:43;100563.28;;;9.70;100.00
2549;BME280;1284;53.520;10.248;2023-02-20T10:25:38;100565.47;;;9.99;100.00
2549;BME280;1284;53.520;10.248;2023-02-20T10:28:11;100547.25;;;10.27;100.00
2549;BME280;1284;53.520;10.248;2023-02-20T10:30:55;100547.38;;;10.15;100.00
2549;BME280;1284;53.520;10.248;2023-02-20T10:33:39;100556.03;;;9.89;100.00
2549;BME280;1284;53.520;10.248;2023-02-20T10:36:14;100559.66;;;9.97;100.00
2549;BME280;1284;53.520;10.248;2023-02-20T10:41:29;100544.50;;;10.24;100.00
2549;BME280;1284;53.520;10.248;2023-02-20T10:44:14;100554.56;;;9.92;100.00
2549;BME280;1284;53.520;10.248;2023-02-20T10:46:52;100555.56;;;10.03;100.00
2549;BME280;1284;53.520;10.248;2023-02-20T10:51:58;100547.31;;;10.12;100.00
2549;BME280;1284;53.520;10.248;2023-02-20T10:54:33;100546.28;;;10.16;100.00
2549;BME280;1284;53.520;10.248;2023-02-20T10:57:11;100538.97;;;9.82;100.00
2549;BME280;1284;53.520;10.248;2023-02-20T10:59:50;100540.44;;;9.79;100.00
2549;BME280;1284;53.520;10.248;2023-02-20T11:02:22;100559.53;;;10.09;100.00
2549;BME280;1284;53.520;10.248;2023-02-20T11:04:54;100556.75;;;10.21;100.00
2549;BME280;1284;53.520;10.248;2023-02-20T11:07:23;100545.19;;;10.21;100.00
2549;BME280;1284;53.520;10.248;2023-02-20T11:09:48;100549.66;;;10.32;100.00
2549;BME280;1284;53.520;10.248;2023-02-20T11:12:25;100549.09;;;10.23;100.00
2549;BME280;1284;53.520;10.248;2023-02-20T11:14:55;100532.44;;;10.18;100.00
2549;BME280;1284;53.520;10.248;2023-02-20T11:17:26;100549.78;;;10.20;100.00
2549;BME280;1284;53.520;10.248;2023-02-20T11:19:57;100547.16;;;10.43;100.00
2549;BME280;1284;53.520;10.248;2023-02-20T11:25:30;100542.59;;;10.09;100.00
2549;BME280;1284;53.520;10.248;2023-02-20T11:28:17;100549.50;;;10.06;100.00
2549;BME280;1284;53.520;10.248;2023-02-20T11:30:47;100544.66;;;9.96;100.00
2549;BME280;1284;53.520;10.248;2023-02-20T11:33:22;100556.75;;;10.21;100.00
2549;BME280;1284;53.520;10.248;2023-02-20T11:37:03;100543.63;;;10.39;100.00
2549;BME280;1284;53.520;10.248;2023-02-20T11:39:16;100541.44;;;10.25;100.00
2549;BME280;1284;53.520;10.248;2023-02-20T11:41:44;100536.34;;;10.39;100.00
2549;BME280;1284;53.520;10.248;2023-02-20T11:46:35;100536.78;;;10.07;100.00
2549;BME280;1284;53.520;10.248;2023-02-20T11:49:09;100531.13;;;10.50;100.00
2549;BME280;1284;53.520;10.248;2023-02-20T11:51:44;100518.88;;;10.52;100.00
2549;BME280;1284;53.520;10.248;2023-02-20T11:54:16;100519.47;;;10.42;100.00
2549;BME280;1284;53.520;10.248;2023-02-20T11:57:04;100509.44;;;10.62;100.00
2549;BME280;1284;53.520;10.248;2023-02-20T12:02:22;100512.00;;;11.00;100.00
2549;BME280;1284;53.520;10.248;2023-02-20T12:05:13;100507.22;;;10.90;100.00
2549;BME280;1284;53.520;10.248;2023-02-20T12:10:24;100503.22;;;10.80;100.00
2549;BME280;1284;53.520;10.248;2023-02-20T12:15:37;100495.78;;;10.97;100.00
2549;BME280;1284;53.520;10.248;2023-02-20T12:18:18;100502.72;;;10.98;100.00
2549;BME280;1284;53.520;10.248;2023-02-20T12:20:57;100488.81;;;10.96;100.00
2549;BME280;1284;53.520;10.248;2023-02-20T12:26:19;100478.72;;;10.89;100.00
2549;BME280;1284;53.520;10.248;2023-02-20T12:29:02;100477.13;;;10.62;100.00
2549;BME280;1284;53.520;10.248;2023-02-20T12:42:56;100456.09;;;11.20;99.40
2549;BME280;1284;53.520;10.248;2023-02-20T12:45:42;100464.75;;;10.80;100.00
2549;BME280;1284;53.520;10.248;2023-02-20T12:48:18;100455.59;;;11.11;100.00
2549;BME280;1284;53.520;10.248;2023-02-20T13:01:40;100455.03;;;11.24;100.00
2549;BME280;1284;53.520;10.248;2023-02-20T13:04:17;100454.00;;;11.32;98.53
2549;BME280;1284;53.520;10.248;2023-02-20T13:07:05;100441.25;;;11.33;99.05
2549;BME280;1284;53.520;10.248;2023-02-20T13:09:44;100451.34;;;11.10;100.00
2549;BME280;1284;53.520;10.248;2023-02-20T13:12:14;100446.81;;;10.91;100.00
2549;BME280;1284;53.520;10.248;2023-02-20T13:22:34;100442.56;;;10.90;100.00
2549;BME280;1284;53.520;10.248;2023-02-20T13:25:35;100449.22;;;11.52;98.83
2549;BME280;1284;53.520;10.248;2023-02-20T13:30:37;100449.34;;;11.33;98.39
2549;BME280;1284;53.520;10.248;2023-02-20T13:33:15;100448.69;;;10.87;100.00
2549;BME280;1284;53.520;10.248;2023-02-20T13:35:51;100454.44;;;11.12;100.00
2549;BME280;1284;53.520;10.248;2023-02-20T13:38:18;100442.88;;;11.37;98.92
2549;BME280;1284;53.520;10.248;2023-02-20T13:46:14;100459.38;;;11.32;98.41
2549;BME280;1284;53.520;10.248;2023-02-20T13:48:52;100464.16;;;11.46;97.80
2549;BME280;1284;53.520;10.248;2023-02-20T13:54:04;100460.59;;;11.38;98.38
2549;BME280;1284;53.520;10.248;2023-02-20T13:56:55;100451.19;;;11.55;98.08
2549;BME280;1284;53.520;10.248;2023-02-20T13:59:24;100454.66;;;11.26;99.18
2549;BME280;1284;53.520;10.248;2023-02-20T14:04:28;100439.16;;;10.93;100.00
2549;BME280;1284;53.520;10.248;2023-02-20T14:09:26;100464.38;;;11.08;100.00
2549;BME280;1284;53.520;10.248;2023-02-20T14:12:03;100445.97;;;11.65;97.83
2549;BME280;1284;53.520;10.248;2023-02-20T14:14:37;100450.41;;;11.54;98.11
2549;BME280;1284;53.520;10.248;2023-02-20T14:19:36;100451.97;;;11.26;99.85
2549;BME280;1284;53.520;10.248;2023-02-20T14:24:45;100448.59;;;11.32;98.87
2549;BME280;1284;53.520;10.248;2023-02-20T14:27:25;100455.16;;;11.35;99.75
2549;BME280;1284;53.520;10.248;2023-02-20T14:30:18;100453.66;;;11.37;99.08
2549;BME280;1284;53.520;10.248;2023-02-20T14:32:47;100447.19;;;11.42;99.62
2549;BME280;1284;53.520;10.248;2023-02-20T14:40:53;100436.94;;;10.99;100.00
2549;BME280;1284;53.520;10.248;2023-02-20T14:43:20;100456.09;;;11.20;100.00
2549;BME280;1284;53.520;10.248;2023-02-20T14:46:06;100451.78;;;11.15;100.00
2549;BME280;1284;53.520;10.248;2023-02-20T14:48:34;100453.47;;;11.53;100.00
2549;BME280;1284;53.520;10.248;2023-02-20T14:51:17;100448.31;;;10.88;100.00
2549;BME280;1284;53.520;10.248;2023-02-20T14:53:56;100445.34;;;10.94;100.00
2549;BME280;1284;53.520;10.248;2023-02-20T14:56:22;100457.72;;;11.24;100.00
2549;BME280;1284;53.520;10.248;2023-02-20T14:58:48;100448.41;;;10.96;100.00
2549;BME280;1284;53.520;10.248;2023-02-20T15:01:35;100442.00;;;11.30;100.00
2549;BME280;1284;53.520;10.248;2023-02-20T15:04:14;100449.09;;;11.41;100.00
2549;BME280;1284;53.520;10.248;2023-02-20T15:06:42;100444.47;;;11.42;100.00
2549;BME280;1284;53.520;10.248;2023-02-20T15:09:09;100447.84;;;11.09;100.00
2549;BME280;1284;53.520;10.248;2023-02-20T15:11:44;100448.47;;;11.25;100.00
2549;BME280;1284;53.520;10.248;2023-02-20T15:14:17;100455.13;;;11.05;100.00
2549;BME280;1284;53.520;10.248;2023-02-20T15:16:43;100442.72;;;11.01;100.00
2549;BME280;1284;53.520;10.248;2023-02-20T15:19:38;100451.75;;;11.12;100.00
2549;BME280;1284;53.520;10.248;2023-02-20T15:22:04;100459.31;;;11.29;100.00
2549;BME280;1284;53.520;10.248;2023-02-20T15:24:37;100447.84;;;11.35;100.00
2549;BME280;1284;53.520;10.248;2023-02-20T15:27:11;100444.50;;;11.16;100.00
2549;BME280;1284;53.520;10.248;2023-02-20T15:29:38;100457.84;;;11.35;100.00
2549;BME280;1284;53.520;10.248;2023-02-20T15:34:39;100462.56;;;11.15;100.00
2549;BME280;1284;53.520;10.248;2023-02-20T15:37:24;100443.13;;;11.29;100.00
2549;BME280;1284;53.520;10.248;2023-02-20T15:39:51;100464.22;;;11.23;100.00
2549;BME280;1284;53.520;10.248;2023-02-20T15:42:19;100458.75;;;11.46;100.00
2549;BME280;1284;53.520;10.248;2023-02-20T15:44:45;100452.91;;;11.66;100.00
2549;BME280;1284;53.520;10.248;2023-02-20T15:47:10;100446.91;;;10.98;100.00
2549;BME280;1284;53.520;10.248;2023-02-20T15:49:35;100454.09;;;10.64;100.00
2549;BME280;1284;53.520;10.248;2023-02-20T15:52:04;100447.34;;;11.00;100.00